^^
Datos históricos de la estación: Murcia-Puente Tocinos
Diario Informe para Mayo 15, 2022 Unidades:  Ingés    Métrico   Ambas
Diario Semanal Mensual Anual
  Máxima: Mínima: Promedio:
Temperatura: 82.9 °F 62.1 °F 72.1 °F
Punto de rocio: 61.2 °F 48 °F 53.4 °F
Humedad: 74% 37% 53%
Velocidad viento: 9.2mph 0mph 4.2mph
Racha viento: 17.5mph - -
Viento- - ESE
Presión: 30 in 29.9 in -
Precipitación: 0 in    
 
 
Tabla de datos para Mayo 15, 2022
Hora Temperatura Punto de rocio Presión Viento Velocidad viento Racha viento Humedad Intensidad lluvia(por hora) Nubes
00:04 67.5 °F 52.2 °F 30 in NE 1.8 mph 2.9 mph 58% 0 in
00:09 67.5 °F 52.2 °F 30 in NNE 1.8 mph 3.1 mph 58% 0 in
00:14 67.5 °F 52.2 °F 30 in NE 1.8 mph 3.5 mph 58% 0 in
00:19 67.3 °F 52.3 °F 30 in NNE 1.8 mph 4 mph 58.6% 0 in
00:24 67.3 °F 52.5 °F 30 in NO 1.8 mph 4.6 mph 59% 0 in
00:29 67.1 °F 52.5 °F 30 in NNO 1.8 mph 3.5 mph 59.4% 0 in
00:34 66.9 °F 52.5 °F 30 in NNO 1.4 mph 2.9 mph 60% 0 in
00:39 66.7 °F 52.7 °F 30 in NNO 1.4 mph 3.5 mph 60.4% 0 in
00:44 66.7 °F 52.9 °F 30 in NE 1.7 mph 3.6 mph 61% 0 in
00:49 66.6 °F 52.7 °F 30 in NE 1.8 mph 4.6 mph 61% 0 in
00:54 66.4 °F 52.3 °F 30 in NNE 2.4 mph 4.6 mph 61% 0 in
00:59 66 °F 52.3 °F 30 in NE 2.4 mph 5.2 mph 61.1% 0 in
01:04 65.8 °F 52.5 °F 30 in NNE 3 mph 5.2 mph 62% 0 in
01:09 65.7 °F 52.3 °F 30 in NE 3.1 mph 3.5 mph 62% 0 in
01:14 65.7 °F 52.3 °F 30 in NE 2.1 mph 3.6 mph 62% 0 in
01:19 65.5 °F 52.2 °F 30 in NE 2 mph 4.6 mph 62% 0 in
01:24 65.5 °F 52.2 °F 30 in NE 2 mph 3.5 mph 62% 0 in
01:29 65.5 °F 52.2 °F 30 in NE 2 mph 4.6 mph 62% 0 in
01:34 65.5 °F 52.2 °F 30 in NE 2.4 mph 4.6 mph 62% 0 in
01:39 65.5 °F 52 °F 30 in NE 2.4 mph 3.5 mph 61.9% 0 in
01:44 65.1 °F 50.5 °F 30 in Este 2.1 mph 2.9 mph 59% 0 in
01:49 65.1 °F 50.4 °F 30 in ESE 2 mph 2.4 mph 58.9% 0 in
01:54 64.9 °F 49.8 °F 30 in ESE 1.8 mph 2.4 mph 57.9% 0 in
01:59 64.9 °F 48.9 °F 30 in ESE 1.8 mph 2.3 mph 56.4% 0 in
02:04 64.8 °F 48.6 °F 30 in ESE 1.4 mph 2.3 mph 55.6% 0 in
02:09 64.6 °F 49.3 °F 30 in Este 1.4 mph 2.4 mph 57.6% 0 in
02:14 64.6 °F 50 °F 30 in Este 1.4 mph 2.4 mph 59.2% 0 in
02:19 64.6 °F 51.3 °F 30 in ENE 1.4 mph 2.4 mph 62.1% 0 in
02:24 64.6 °F 52 °F 30 in NNE 1.4 mph 2.9 mph 63.5% 0 in
02:29 64.6 °F 52.2 °F 30 in NNE 1.4 mph 2.4 mph 64.1% 0 in
02:34 64.4 °F 52.3 °F 30 in NNE 1.4 mph 2.4 mph 65% 0 in
02:39 64.2 °F 52.5 °F 30 in NNE 1.4 mph 2.3 mph 65.7% 0 in
02:44 64.2 °F 52.5 °F 30 in NNE 0.2 mph 2.3 mph 66% 0 in
02:49 64 °F 52.3 °F 30 in Calm   2.4 mph 66% 0 in
02:54 64 °F 52.3 °F 30 in Calm   2.9 mph 65.9% 0 in
02:59 63.9 °F 50.7 °F 30 in Calm   3.5 mph 62.4% 0 in
03:04 63.7 °F 50.2 °F 30 in ESE 1.7 mph 3.5 mph 61.3% 0 in
03:09 63.7 °F 50.4 °F 30 in ESE 1.8 mph 3.6 mph 62% 0 in
03:14 63.7 °F 50 °F 30 in SE 2 mph 4.6 mph 61.1% 0 in
03:19 63.7 °F 49.6 °F 30 in SSE 2 mph 5.2 mph 60.2% 0 in
03:24 63.7 °F 49.5 °F 30 in SE 2.8 mph 4.6 mph 60% 0 in
03:29 63.9 °F 49.6 °F 30 in SE 2.9 mph 4.7 mph 60% 0 in
03:34 63.7 °F 49.1 °F 30 in SE 2.5 mph 4.7 mph 59.1% 0 in
03:39 63.7 °F 49.3 °F 30 in ESE 2.4 mph 5.2 mph 59.5% 0 in
03:44 63.7 °F 49.5 °F 30 in ESE 2.9 mph 4.7 mph 60% 0 in
03:49 63.3 °F 49.1 °F 30 in SE 2.9 mph 5.8 mph 59.9% 0 in
03:54 63 °F 48.7 °F 30 in SSE 3.1 mph 5.8 mph 59.8% 0 in
03:59 62.6 °F 48.6 °F 30 in Sur 3.1 mph 4.6 mph 60% 0 in
04:04 62.4 °F 48.7 °F 30 in SSE 2.9 mph 4 mph 60.9% 0 in
04:09 62.6 °F 48.9 °F 30 in Sur 2.9 mph 4.7 mph 61% 0 in
04:14 62.8 °F 49.1 °F 30 in SSO 2.9 mph 5.2 mph 61% 0 in
04:19 63 °F 49.6 °F 30 in SO 2.9 mph 5.9 mph 61.9% 0 in
04:24 63.1 °F 50 °F 30 in SSO 3.5 mph 5.9 mph 62.2% 0 in
04:29 63.3 °F 50.5 °F 30 in SSO 3.6 mph 5.9 mph 63% 0 in
04:34 63.3 °F 50.2 °F 30 in SO 3 mph 5.8 mph 62% 0 in
04:39 63.5 °F 50.2 °F 30 in SO 2.9 mph 4.7 mph 62% 0 in
04:44 63.5 °F 50.2 °F 30 in SO 3.1 mph 4.7 mph 62% 0 in
04:49 63.5 °F 50.5 °F 30 in SO 3.1 mph 5.2 mph 62.5% 0 in
04:54 63.5 °F 50.7 °F 30 in OSO 3.1 mph 5.9 mph 63% 0 in
04:59 63.5 °F 50.7 °F 30 in OSO 3.1 mph 6.9 mph 63% 0 in
05:04 63.3 °F 50.5 °F 30 in Oeste 3.6 mph 4.7 mph 63.1% 0 in
05:09 63.1 °F 50.9 °F 30 in SO 3.6 mph 6.4 mph 64% 0 in
05:14 63 °F 50.7 °F 30 in SO 3.2 mph 6.9 mph 64.1% 0 in
05:19 63 °F 51.1 °F 30 in SSO 3.1 mph 4.6 mph 65% 0 in
05:24 63 °F 51.1 °F 30 in SSO 2.9 mph 3.6 mph 65% 0 in
05:29 63 °F 50.9 °F 30 in SSO 2.9 mph 5.9 mph 64.6% 0 in
05:34 63 °F 50.5 °F 30 in SSO 3 mph 5.9 mph 64.2% 0 in
05:39 62.8 °F 50.7 °F 30 in Sur 3.1 mph 7.4 mph 65% 0 in
05:44 62.8 °F 50.7 °F 30 in SSO 4.2 mph 6.9 mph 65% 0 in
05:49 62.4 °F 50.4 °F 30 in SSO 4.3 mph 5.8 mph 64.6% 0 in
05:54 62.4 °F 50 °F 30 in SSO 4 mph 5.9 mph 63.9% 0 in
05:59 62.4 °F 49.6 °F 30 in Sur 4 mph 5.8 mph 63% 0 in
06:04 62.2 °F 49.5 °F 30 in Sur 3.7 mph 5.9 mph 63% 0 in
06:09 62.2 °F 49.3 °F 30 in Sur 3.6 mph 6.9 mph 62.5% 0 in
06:14 62.4 °F 49.3 °F 30 in SSO 4.2 mph 7.4 mph 62% 0 in
06:19 62.6 °F 49.1 °F 30 in SO 4.3 mph 5.9 mph 61.3% 0 in
06:24 63 °F 48.7 °F 30 in SO 4 mph 4.6 mph 60% 0 in
06:29 63 °F 48.7 °F 30 in SSE 4 mph 5.4 mph 59.7% 0 in
06:34 63 °F 49.3 °F 30 in NE 2.2 mph 5.8 mph 60.7% 0 in
06:39 62.8 °F 49.3 °F 30 in North 2 mph 4.6 mph 61.4% 0 in
06:44 62.4 °F 49.5 °F 30 in SO 2.4 mph 5.8 mph 62.7% 0 in
06:49 62.1 °F 49.6 °F 30 in SSO 2.4 mph 4 mph 63.9% 0 in
06:54 62.1 °F 49.6 °F 30 in OSO 2.1 mph 5.9 mph 64% 0 in
06:59 62.1 °F 50.2 °F 30 in ENE 2 mph 2.9 mph 64.9% 0 in
07:04 62.1 °F 50.2 °F 30 in Este 1.8 mph 5.2 mph 65% 0 in
07:09 62.2 °F 50.2 °F 30 in SSO 1.8 mph 6.9 mph 64.7% 0 in
07:14 62.2 °F 49.8 °F 30 in SSO 3.8 mph 8.1 mph 63.6% 0 in
07:19 62.6 °F 49.3 °F 30 in SSO 4 mph 11.5 mph 61.7% 0 in
07:24 62.6 °F 48.9 °F 30 in SSO 5.9 mph 10.7 mph 61% 0 in
07:29 62.4 °F 49.1 °F 30 in Sur 6.2 mph 8.7 mph 61.9% 0 in
07:34 62.2 °F 49.3 °F 30 in SSO 5.9 mph 10.7 mph 62.2% 0 in
07:39 62.1 °F 49.3 °F 30 in Sur 5.9 mph 5.2 mph 63% 0 in
07:44 62.1 °F 49.3 °F 30 in SE 4.2 mph 4.6 mph 63.1% 0 in
07:49 62.1 °F 49.3 °F 30 in SE 4 mph 2.9 mph 63.1% 0 in
07:54 62.1 °F 49.3 °F 30 in SSE 2.1 mph 3.6 mph 63% 0 in
07:59 62.2 °F 49.5 °F 30 in SSO 1.8 mph 4.6 mph 63% 0 in
08:04 62.4 °F 49.3 °F 30 in SO 2 mph 4.7 mph 62.2% 0 in
08:09 62.4 °F 49.3 °F 30 in Oeste 2 mph 5.8 mph 62% 0 in
08:14 62.8 °F 49.5 °F 30 in Oeste 2.9 mph 5.2 mph 62% 0 in
08:19 62.8 °F 49.6 °F 30 in OSO 3.1 mph 5.8 mph 62% 0 in
08:24 62.8 °F 49.3 °F 30 in OSO 3.1 mph 5.2 mph 61.3% 0 in
08:29 63 °F 49.1 °F 30 in SO 3.1 mph 5.2 mph 60.7% 0 in
08:34 63.3 °F 49.1 °F 30 in SSO 2.9 mph 5.8 mph 59.9% 0 in
08:39 63.9 °F 48.7 °F 30 in SSO 2.9 mph 5.9 mph 58.2% 0 in
08:44 64 °F 48.6 °F 30 in Sur 3.9 mph 4.7 mph 57% 0 in
08:49 64.6 °F 49.1 °F 30 in SSO 4 mph 4.6 mph 57% 0 in
08:54 65.1 °F 48.9 °F 30 in SO 2.5 mph 4.6 mph 55.8% 0 in
08:59 65.7 °F 48.7 °F 30 in SO 2.4 mph 4.3 mph 54.2% 0 in
09:04 66.2 °F 48.2 °F 30 in OSO 1.8 mph 6.2 mph 52.4% 0 in
09:09 66.4 °F 48.2 °F 30 in Oeste 1.8 mph 5.8 mph 52% 0 in
09:14 66.6 °F 48.4 °F 30 in SO 2.9 mph 4.7 mph 52% 0 in
09:19 66.9 °F 48.2 °F 30 in SO 3.1 mph 4.6 mph 51% 0 in
09:24 67.3 °F 48 °F 30 in SSO 2.5 mph 4.6 mph 50% 0 in
09:29 67.6 °F 49.3 °F 30 in Sur 2.4 mph 6.2 mph 51.8% 0 in
09:34 67.8 °F 50 °F 30 in SSO 2.9 mph 5.8 mph 52.8% 0 in
09:39 67.6 °F 49.6 °F 30 in Sur 2.9 mph 5.8 mph 52.5% 0 in
09:44 67.8 °F 49.8 °F 30 in SSE 3.1 mph 3.5 mph 52.5% 0 in
09:49 68.5 °F 50 °F 30 in SSE 3.1 mph 3.6 mph 51.6% 0 in
09:54 69.3 °F 49.8 °F 30 in SE 1.9 mph 4 mph 50.1% 0 in
09:59 69.6 °F 49.6 °F 30 in NO 1.8 mph 4.6 mph 49% 0 in
10:04 70 °F 49.3 °F 30 in Oeste 2 mph 4.7 mph 48.1% 0 in
10:09 69.8 °F 49.3 °F 30 in SSO 2 mph 4.6 mph 48% 0 in
10:14 70 °F 49.1 °F 30 in OSO 2.8 mph 5.2 mph 47.6% 0 in
10:19 70.2 °F 48.9 °F 30 in OSO 2.9 mph 6.2 mph 47% 0 in
10:24 70.2 °F 49.3 °F 30 in Oeste 3.5 mph 6.9 mph 47.6% 0 in
10:29 70.3 °F 49.3 °F 30 in Oeste 3.6 mph 5.9 mph 47.2% 0 in
10:34 70.7 °F 49.1 °F 30 in OSO 3.6 mph 6.2 mph 46.3% 0 in
10:39 71.1 °F 48.9 °F 30 in OSO 3.6 mph 4.6 mph 45.5% 0 in
10:44 71.6 °F 49.1 °F 30 in Oeste 2.6 mph 4.6 mph 45% 0 in
10:49 72.1 °F 49.3 °F 30 in North 2.4 mph 4.7 mph 44.3% 0 in
10:54 73 °F 49.1 °F 30 in North 2.1 mph 4.6 mph 42.9% 0 in
10:59 73.4 °F 48.9 °F 30 in ONO 2 mph 4.6 mph 42% 0 in
11:04 73.8 °F 49.1 °F 30 in ENE 2.4 mph 3.6 mph 41.7% 0 in
11:09 74.1 °F 49.1 °F 30 in Oeste 2.4 mph 4.7 mph 41.2% 0 in
11:14 74.7 °F 49.5 °F 30 in NNE 2.1 mph 3.6 mph 41.2% 0 in
11:19 75 °F 49.1 °F 30 in SO 2 mph 5.2 mph 40.1% 0 in
11:24 75.4 °F 49.3 °F 30 in SSE 2.4 mph 5.2 mph 40% 0 in
11:29 75.4 °F 48.7 °F 30 in SSE 2.4 mph 5.8 mph 39.1% 0 in
11:34 75.7 °F 49.1 °F 30 in Este 2.8 mph 5.9 mph 39.1% 0 in
11:39 75.9 °F 48.6 °F 30 in SE 2.9 mph 7.4 mph 38.1% 0 in
11:44 75.7 °F 48.4 °F 30 in Sur 3.5 mph 4.7 mph 38% 0 in
11:49 75.9 °F 48.4 °F 30 in Este 3.6 mph 6.2 mph 38% 0 in
11:54 76.3 °F 48.2 °F 30 in ESE 3 mph 6.2 mph 37.2% 0 in
11:59 76.3 °F 48.7 °F 30 in ESE 2.9 mph 5.8 mph 38% 0 in
12:04 76.6 °F 49.1 °F 30 in Este 3.1 mph 5.8 mph 38% 0 in
12:09 77 °F 49.5 °F 30 in ENE 3.1 mph 5.8 mph 38.1% 0 in
12:14 77.4 °F 49.6 °F 30 in ESE 3.1 mph 3.6 mph 38% 0 in
12:19 77.5 °F 49.8 °F 30 in ESE 3.1 mph 6.2 mph 37.7% 0 in
12:24 77.9 °F 50 °F 30 in North 2.5 mph 6.4 mph 37.6% 0 in
12:29 78.3 °F 50.2 °F 30 in North 2.4 mph 6.9 mph 37.4% 0 in
12:34 78.6 °F 50.9 °F 30 in Este 2.9 mph 6.2 mph 38% 0 in
12:39 79.2 °F 51.4 °F 30 in NNE 2.9 mph 7.4 mph 38% 0 in
12:44 78.8 °F 51.4 °F 30 in NE 3.5 mph 6.9 mph 38.7% 0 in
12:49 78.6 °F 51.4 °F 30 in NNE 3.6 mph 5.9 mph 38.9% 0 in
12:54 79 °F 51.8 °F 30 in NE 3.6 mph 7.4 mph 38.9% 0 in
12:59 79.2 °F 52 °F 30 in Este 3.6 mph 8.5 mph 39% 0 in
13:04 79.5 °F 52.3 °F 30 in NE 3.1 mph 8.1 mph 39.1% 0 in
13:09 79.3 °F 52.3 °F 30 in NNE 3.1 mph 8.1 mph 39% 0 in
13:14 79.5 °F 53.1 °F 30 in ENE 3.9 mph 11.5 mph 39.8% 0 in
13:19 79.3 °F 53.1 °F 30 in NE 4 mph 9.2 mph 40.2% 0 in
13:24 79.7 °F 53.6 °F 30 in ENE 4.3 mph 7.4 mph 40.6% 0 in
13:29 80.1 °F 54.1 °F 30 in NE 4.3 mph 11.8 mph 41% 0 in
13:34 80.1 °F 54.1 °F 30 in NE 4.7 mph 9.2 mph 41% 0 in
13:39 80.2 °F 54.3 °F 30 in NE 4.7 mph 9.2 mph 41% 0 in
13:44 80.2 °F 54.3 °F 30 in NNE 4.7 mph 6.9 mph 41% 0 in
13:49 80.6 °F 54.7 °F 30 in NNO 4.7 mph 8.5 mph 40.9% 0 in
13:54 81 °F 54.7 °F 30 in NNE 4.1 mph 11.5 mph 40.3% 0 in
13:59 81.3 °F 54.7 °F 30 in NNE 4 mph 14.5 mph 40% 0 in
14:04 81.9 °F 55.2 °F 30 in NE 5.2 mph 15 mph 40% 0 in
14:09 82.2 °F 55.2 °F 30 in NE 5.2 mph 10.7 mph 39.5% 0 in
14:14 82 °F 54.7 °F 30 in NE 4.7 mph 12.7 mph 39% 0 in
14:19 82 °F 55 °F 30 in NE 4.7 mph 9.2 mph 39.6% 0 in
14:24 82.4 °F 55 °F 30 in NE 5.2 mph 11.2 mph 39.1% 0 in
14:29 82.6 °F 55 °F 30 in ENE 5.2 mph 11.5 mph 39% 0 in
14:34 82.8 °F 55.2 °F 30 in NE 5.4 mph 10.4 mph 38.9% 0 in
14:39 82.9 °F 55.2 °F 30 in ENE 5.4 mph 13 mph 38.7% 0 in
14:44 82.9 °F 54.9 °F 30 in NE 6.1 mph 12.7 mph 38.1% 0 in
14:49 82.8 °F 55.2 °F 30 in NE 6.2 mph 11.8 mph 38.7% 0 in
14:54 82.6 °F 55 °F 30 in NE 7.2 mph 16.3 mph 38.9% 0 in
14:59 82.4 °F 54.9 °F 30 in NNE 7.4 mph 16.1 mph 39% 0 in
15:04 82.2 °F 55.4 °F 30 in NE 9.1 mph 11.8 mph 39.9% 0 in
15:09 82.6 °F 55.9 °F 30 in NE 9.2 mph 13 mph 40% 0 in
15:14 82.8 °F 55.9 °F 30 in NNE 7.6 mph 14.7 mph 40% 0 in
15:19 82.8 °F 56.3 °F 30 in NE 7.4 mph 15 mph 40.5% 0 in
15:24 82.8 °F 57.2 °F 30 in NE 7.4 mph 15 mph 41.8% 0 in
15:29 82.6 °F 57.2 °F 30 in NE 7.4 mph 17.3 mph 42.1% 0 in
15:34 82.4 °F 57.6 °F 30 in NE 8 mph 13 mph 43% 0 in
15:39 82.2 °F 57.6 °F 30 in NE 8.1 mph 12.7 mph 43.1% 0 in
15:44 82.4 °F 57.7 °F 30 in NE 6.6 mph 9.2 mph 43.1% 0 in
15:49 82.4 °F 58.3 °F 30 in NE 6.4 mph 13 mph 43.8% 0 in
15:54 82.4 °F 58.8 °F 29.9 in ENE 6 mph 14 mph 44.6% 0 in
15:59 82.2 °F 59 °F 29.9 in Este 5.9 mph 13.8 mph 45.4% 0 in
16:04 82.4 °F 59.4 °F 29.9 in Este 6.2 mph 10.4 mph 45.6% 0 in
16:09 82.2 °F 59 °F 29.9 in ESE 6.2 mph 12.3 mph 45.3% 0 in
16:14 82.2 °F 59.4 °F 29.9 in ESE 6.2 mph 13.5 mph 46% 0 in
16:19 81.7 °F 59.2 °F 29.9 in SE 6.2 mph 17.5 mph 46.4% 0 in
16:24 81.1 °F 59.5 °F 29.9 in ESE 8.3 mph 15.2 mph 48% 0 in
16:29 81.3 °F 59.7 °F 29.9 in ESE 8.7 mph 16.1 mph 48% 0 in
16:34 81.7 °F 59.7 °F 29.9 in ESE 8.1 mph 13.8 mph 47.4% 0 in
16:39 81.7 °F 59.7 °F 29.9 in ESE 8.1 mph 14 mph 47.4% 0 in
16:44 81.1 °F 59.9 °F 29.9 in SE 8.1 mph 13 mph 48.4% 0 in
16:49 81 °F 59.7 °F 29.9 in SE 8.1 mph 12.7 mph 48.5% 0 in
16:54 81.1 °F 60.1 °F 29.9 in ESE 7.6 mph 13.8 mph 48.9% 0 in
16:59 81.3 °F 60.3 °F 29.9 in ESE 7.6 mph 13.8 mph 48.8% 0 in
17:04 81.3 °F 60.6 °F 29.9 in ESE 8.1 mph 17.3 mph 49.4% 0 in
17:09 81.1 °F 61.2 °F 29.9 in Este 8.1 mph 15 mph 50.9% 0 in
17:14 81 °F 61.2 °F 29.9 in ESE 9.1 mph 15.2 mph 51% 0 in
17:19 81 °F 61.2 °F 29.9 in ESE 9.2 mph 17.5 mph 51.1% 0 in
17:24 80.8 °F 61.2 °F 29.9 in ESE 9.2 mph 17.3 mph 51.2% 0 in
17:29 81 °F 61 °F 29.9 in ESE 9.2 mph 13.7 mph 50.9% 0 in
17:34 81.1 °F 60.3 °F 29.9 in ESE 8.8 mph 16.1 mph 49.4% 0 in
17:39 81 °F 59.5 °F 29.9 in ESE 8.7 mph 13.8 mph 48.4% 0 in
17:44 81 °F 58.6 °F 29.9 in ESE 9.1 mph 12.7 mph 46.7% 0 in
17:49 81.1 °F 57.9 °F 29.9 in ESE 9.2 mph 10.4 mph 45% 0 in
17:54 81.5 °F 57.2 °F 29.9 in ESE 6.5 mph 7.4 mph 43.4% 0 in
17:59 81.9 °F 57 °F 29.9 in ESE 6.2 mph 11.5 mph 42.7% 0 in
18:04 82 °F 56.8 °F 29.9 in ESE 6.2 mph 11.5 mph 42.2% 0 in
18:09 82 °F 57 °F 29.9 in Este 6.2 mph 9.2 mph 42.4% 0 in
18:14 82.2 °F 57.2 °F 29.9 in ESE 5.3 mph 9.7 mph 42.6% 0 in
18:19 82.2 °F 57 °F 29.9 in Este 5.2 mph 9.2 mph 42.4% 0 in
18:24 82.4 °F 57.2 °F 29.9 in ESE 5.4 mph 6.2 mph 42.4% 0 in
18:29 82.6 °F 56.8 °F 29.9 in ESE 5.4 mph 9.2 mph 41.4% 0 in
18:34 82.8 °F 55.9 °F 29.9 in ESE 4.8 mph 8.1 mph 40.2% 0 in
18:39 82.8 °F 55.9 °F 29.9 in ESE 4.7 mph 9.2 mph 39.9% 0 in
18:44 82.8 °F 55.2 °F 29.9 in ESE 5.2 mph 10.2 mph 38.7% 0 in
18:49 82.8 °F 54.7 °F 29.9 in ESE 5.2 mph 11.8 mph 38.1% 0 in
18:54 82.6 °F 54 °F 29.9 in ESE 6.8 mph 11.8 mph 37.4% 0 in
18:59 82.6 °F 53.6 °F 29.9 in ESE 6.9 mph 10.2 mph 37% 0 in
19:04 82.2 °F 54 °F 29.9 in SE 6.9 mph 10.4 mph 37.9% 0 in
19:09 82.4 °F 54.1 °F 29.9 in ESE 6.9 mph 8.1 mph 38% 0 in
19:14 82.4 °F 54.7 °F 29.9 in Este 5.4 mph 7.6 mph 38.6% 0 in
19:19 82.6 °F 54.3 °F 29.9 in ESE 5.2 mph 9.2 mph 38% 0 in
19:24 82.6 °F 54.9 °F 29.9 in ESE 4.4 mph 8.1 mph 38.6% 0 in
19:29 82.6 °F 55.2 °F 29.9 in ESE 4.3 mph 8.1 mph 39.3% 0 in
19:34 82.2 °F 55.4 °F 29.9 in Este 4.3 mph 8.7 mph 39.9% 0 in
19:39 81.9 °F 54.9 °F 29.9 in ESE 4.3 mph 10.4 mph 39.4% 0 in
19:44 81.7 °F 54.9 °F 29.9 in ESE 5.3 mph 9.2 mph 40% 0 in
19:49 81.7 °F 54.9 °F 29.9 in ESE 5.4 mph 9.2 mph 40% 0 in
19:54 81.3 °F 54.9 °F 29.9 in Este 5.4 mph 9.2 mph 40.1% 0 in
19:59 81.1 °F 55.6 °F 29.9 in NNE 5.4 mph 9.2 mph 41.5% 0 in
20:04 80.8 °F 57.2 °F 29.9 in NE 4.7 mph 10.2 mph 44.7% 0 in
20:09 80.2 °F 58.3 °F 29.9 in NE 4.7 mph 10.4 mph 47.3% 0 in
20:14 79.9 °F 59.2 °F 29.9 in NE 5.2 mph 9.2 mph 49.3% 0 in
20:19 79.3 °F 59.5 °F 29.9 in NE 5.2 mph 11.8 mph 51.1% 0 in
20:24 78.6 °F 59.4 °F 29.9 in NE 5.8 mph 15 mph 51.8% 0 in
20:29 77.9 °F 58.1 °F 29.9 in NE 5.9 mph 15 mph 50.5% 0 in
20:34 77.4 °F 56.8 °F 29.9 in NE 7.9 mph 13.8 mph 49.3% 0 in
20:39 76.8 °F 55.9 °F 29.9 in NNE 8.1 mph 15.6 mph 48.6% 0 in
20:44 76.3 °F 56.3 °F 29.9 in NNE 7.6 mph 16.1 mph 49.9% 0 in
20:49 75.9 °F 56.8 °F 30 in NE 7.6 mph 10.4 mph 51.7% 0 in
20:54 75.6 °F 57.4 °F 30 in NE 7.4 mph 13 mph 53.1% 0 in
20:59 75.2 °F 57.4 °F 30 in NNE 7.4 mph 13 mph 54% 0 in
21:04 74.8 °F 57.4 °F 30 in NNE 7.6 mph 13.5 mph 54.5% 0 in
21:09 74.5 °F 56.8 °F 30 in NE 7.6 mph 13.8 mph 54% 0 in
21:14 74.1 °F 56.7 °F 30 in NNE 8 mph 9.2 mph 54.5% 0 in
21:19 73.9 °F 56.8 °F 30 in NNE 8.1 mph 10.4 mph 55% 0 in
21:24 73.6 °F 56.7 °F 30 in NNE 6.2 mph 11.5 mph 55.5% 0 in
21:29 73.2 °F 56.8 °F 30 in NNE 5.9 mph 11.5 mph 56.6% 0 in
21:34 72.9 °F 56.8 °F 30 in NNE 7.2 mph 10.7 mph 57.3% 0 in
21:39 72.9 °F 57.4 °F 30 in NNE 7.4 mph 10.4 mph 58.4% 0 in
21:44 72.5 °F 57.6 °F 30 in NNE 6.1 mph 9.2 mph 59.4% 0 in
21:49 72.3 °F 57.7 °F 30 in NNE 5.9 mph 10.4 mph 60% 0 in
21:54 72.1 °F 58.1 °F 30 in NNE 6.2 mph 9.2 mph 61.4% 0 in
21:59 72 °F 58.5 °F 30 in NNE 6.2 mph 9.2 mph 62.7% 0 in
22:04 71.6 °F 58.8 °F 30 in NNE 6.2 mph 10.4 mph 64% 0 in
22:09 71.4 °F 58.6 °F 30 in NE 6.2 mph 10.4 mph 64.1% 0 in
22:14 71.4 °F 58.5 °F 30 in NE 5.5 mph 10.4 mph 63.8% 0 in
22:19 71.4 °F 58.3 °F 30 in NE 5.4 mph 9.2 mph 63.1% 0 in
22:24 71.6 °F 58.8 °F 30 in ENE 5.4 mph 7.4 mph 63.9% 0 in
22:29 71.6 °F 58.5 °F 30 in ENE 5.4 mph 8.1 mph 63.4% 0 in
22:34 71.6 °F 58.3 °F 30 in NNE 4.4 mph 6.9 mph 63% 0 in
22:39 71.4 °F 58.5 °F 30 in NNE 4.3 mph 6.9 mph 63.5% 0 in
22:44 71.2 °F 58.6 °F 30 in NNE 4 mph 7.4 mph 64.4% 0 in
22:49 71.1 °F 58.8 °F 30 in NNE 4 mph 5.8 mph 65.5% 0 in
22:54 70.9 °F 59 °F 30 in NNE 3.7 mph 5.4 mph 66% 0 in
22:59 70.9 °F 59.2 °F 30 in NNE 3.6 mph 5.9 mph 66.7% 0 in
23:04 70.5 °F 59.4 °F 30 in NNE 3.1 mph 5.2 mph 67.8% 0 in
23:09 70.5 °F 59.9 °F 30 in NNE 3.1 mph 5.9 mph 69.1% 0 in
23:14 70.3 °F 60.1 °F 30 in NNO 3.1 mph 4.7 mph 70.1% 0 in
23:19 70.3 °F 60.4 °F 30 in NNE 3.1 mph 3.6 mph 71% 0 in
23:24 70.3 °F 60.6 °F 30 in NNE 2.1 mph 5.8 mph 71.2% 0 in
23:29 70.2 °F 60.8 °F 30 in NE 2 mph 4.6 mph 72% 0 in
23:34 70.2 °F 60.8 °F 30 in NE 2.8 mph 5.8 mph 72.5% 0 in
23:39 69.8 °F 60.8 °F 30 in NE 2.9 mph 4.6 mph 73% 0 in
23:44 69.6 °F 61 °F 30 in NE 2.9 mph 3.6 mph 74% 0 in
23:49 69.6 °F 61 °F 30 in Este 2.9 mph 4.6 mph 73.9% 0 in
23:54 69.4 °F 60.4 °F 30 in ESE 2.5 mph 5.8 mph 73% 0 in
23:59 69.4 °F 60.4 °F 30 in SE 2.4 mph 2.9 mph 73% 0 in
Murcia-Puente Tocinos, Espa?a
Compliments of Weather Underground - 3 mb

La estación de MeteoMurcia.com, publica sus datos en los siguientes proyectos:

Weather Underground PWS IMURCIAP2 Meteoclimatic www.awekas.at

W3Counter
Web Analytics